Time;durP1;ratioP1;P1;durP2;ratioP2;P2;SDS_P1;SDS_P2;PMS_P1;PMS_P2;Temp;Humidity;BMP_temperature;BMP_pressure;BME280_temperature;BME280_humidity;BME280_pressure;Samples;Min_cycle;Max_cycle;Signal;HPM_P1;HPM_P2
2022/11/26 00:00:53;;;;;;;11.27;3.17;;;9.70;99.90;;;;;;5054019;28;20201;-59
2022/11/26 00:03:20;;;;;;;11.17;4.17;;;9.70;99.90;;;;;;5052455;28;20716;-59
2022/11/26 00:05:50;;;;;;;11.97;3.93;;;9.70;99.90;;;;;;5053864;28;20220;-59
2022/11/26 00:08:20;;;;;;;12.60;3.83;;;9.70;99.90;;;;;;5054225;28;20589;-59
2022/11/26 00:10:51;;;;;;;8.53;3.60;;;9.70;99.90;;;;;;5053864;28;20677;-59
2022/11/26 00:13:20;;;;;;;10.00;3.30;;;9.70;99.90;;;;;;5053563;28;20245;-59
2022/11/26 00:15:47;;;;;;;11.73;3.60;;;9.60;99.90;;;;;;5053902;28;20212;-58
2022/11/26 00:18:15;;;;;;;7.87;3.47;;;9.60;99.90;;;;;;5053915;28;20291;-58
2022/11/26 00:20:42;;;;;;;7.07;3.50;;;9.70;99.90;;;;;;5053643;28;20243;-58
2022/11/26 00:23:18;;;;;;;8.77;4.47;;;9.60;99.90;;;;;;5053143;28;20617;-58
2022/11/26 00:25:48;;;;;;;11.60;5.03;;;9.70;99.90;;;;;;5053720;28;20612;-58
2022/11/26 00:28:26;;;;;;;11.57;4.97;;;9.70;99.90;;;;;;5054265;28;20202;-58
2022/11/26 00:30:54;;;;;;;8.87;4.13;;;9.70;99.90;;;;;;5054045;28;20579;-58
2022/11/26 00:33:22;;;;;;;12.47;4.60;;;9.70;99.90;;;;;;5053853;28;20201;-58
2022/11/26 00:35:50;;;;;;;12.53;5.60;;;9.70;99.90;;;;;;5053929;28;20756;-58
2022/11/26 00:38:20;;;;;;;10.00;5.47;;;9.70;99.90;;;;;;5053436;28;20313;-58
2022/11/26 00:40:47;;;;;;;12.30;5.80;;;9.70;99.90;;;;;;5053726;28;20696;-58
2022/11/26 00:43:16;;;;;;;13.30;5.23;;;9.70;99.90;;;;;;5052808;28;20237;-58
2022/11/26 00:45:46;;;;;;;10.97;4.83;;;9.80;99.90;;;;;;5053362;28;20216;-58
2022/11/26 00:48:13;;;;;;;10.97;4.97;;;9.80;99.90;;;;;;5053104;28;20677;-58
2022/11/26 00:50:42;;;;;;;13.13;5.00;;;9.80;99.90;;;;;;5053278;28;20235;-58
2022/11/26 00:53:12;;;;;;;15.10;5.40;;;9.80;99.90;;;;;;5052683;28;20232;-58
2022/11/26 00:55:41;;;;;;;8.87;5.27;;;9.80;99.90;;;;;;5053515;28;20205;-58
2022/11/26 00:58:20;;;;;;;10.57;4.77;;;9.70;99.90;;;;;;5053265;28;20237;-58
2022/11/26 01:00:49;;;;;;;13.27;5.20;;;9.70;99.90;;;;;;5052989;28;20674;-58
2022/11/26 01:03:15;;;;;;;12.13;5.03;;;9.70;99.90;;;;;;5052410;28;20236;-58
2022/11/26 01:05:43;;;;;;;10.53;5.10;;;9.70;99.90;;;;;;5053598;28;20205;-59
2022/11/26 01:08:23;;;;;;;11.43;5.50;;;9.80;99.90;;;;;;5053495;28;20206;-59
2022/11/26 01:10:50;;;;;;;9.97;4.47;;;9.80;99.90;;;;;;5053132;28;20670;-59
2022/11/26 01:13:17;;;;;;;13.97;5.07;;;9.80;99.90;;;;;;5052067;28;20249;-58
2022/11/26 01:15:43;;;;;;;8.67;5.03;;;9.80;99.90;;;;;;5052499;28;20224;-58
2022/11/26 01:18:16;;;;;;;9.23;3.83;;;9.80;99.90;;;;;;5052555;28;20626;-59
2022/11/26 01:20:43;;;;;;;9.43;3.97;;;9.80;99.90;;;;;;5052801;28;20209;-58
2022/11/26 01:23:12;;;;;;;12.17;3.90;;;9.80;99.90;;;;;;5052069;28;20255;-58
2022/11/26 01:25:39;;;;;;;10.17;4.53;;;9.90;99.90;;;;;;5052265;28;20210;-59
2022/11/26 01:28:09;;;;;;;7.73;3.90;;;9.90;99.90;;;;;;5052273;28;20217;-59
2022/11/26 01:30:36;;;;;;;12.73;4.70;;;9.90;99.90;;;;;;5052294;28;20214;-58
2022/11/26 01:33:03;;;;;;;16.27;7.87;;;9.80;99.90;;;;;;5051598;28;20226;-58
2022/11/26 01:35:31;;;;;;;11.23;6.10;;;9.60;99.90;;;;;;5052307;28;20213;-58
2022/11/26 01:37:59;;;;;;;11.70;5.33;;;9.60;99.90;;;;;;5052198;28;20276;-58
2022/11/26 01:41:01;;;;;;;9.20;4.83;;;9.70;99.90;;;;;;5051827;28;20224;-58
2022/11/26 01:43:31;;;;;;;11.30;4.47;;;9.70;99.90;;;;;;5047632;28;20621;-58
2022/11/26 01:45:57;;;;;;;8.57;4.60;;;9.80;99.90;;;;;;5052059;28;20205;-59
2022/11/26 01:48:30;;;;;;;9.47;4.47;;;9.80;99.90;;;;;;5051633;28;20202;-58
2022/11/26 01:51:04;;;;;;;8.93;4.53;;;9.60;99.90;;;;;;5051625;28;20577;-58
2022/11/26 01:53:37;;;;;;;7.93;5.03;;;9.60;99.90;;;;;;5051529;28;20514;-58
2022/11/26 01:56:18;;;;;;;9.33;4.40;;;9.70;99.90;;;;;;5052029;28;20206;-58
2022/11/26 01:58:48;;;;;;;10.97;5.23;;;9.60;99.90;;;;;;5052077;28;20232;-58
2022/11/26 02:01:16;;;;;;;8.70;4.70;;;9.70;99.90;;;;;;5051743;28;20396;-58
2022/11/26 02:03:49;;;;;;;10.90;4.80;;;9.70;99.90;;;;;;5051371;28;20237;-58
2022/11/26 02:06:21;;;;;;;9.97;4.67;;;9.70;99.90;;;;;;5052215;28;20210;-58
2022/11/26 02:08:48;;;;;;;11.97;4.80;;;9.60;99.90;;;;;;5051746;28;20650;-58
2022/11/26 02:11:17;;;;;;;9.80;4.67;;;9.60;99.90;;;;;;5051479;28;20262;-58
2022/11/26 02:13:46;;;;;;;11.47;5.00;;;9.70;99.90;;;;;;5051192;28;20296;-58
2022/11/26 02:16:34;;;;;;;8.90;4.63;;;9.70;99.90;;;;;;5051490;28;20231;-58
2022/11/26 02:19:27;;;;;;;13.73;6.80;;;9.80;99.90;;;;;;5051823;28;20253;-58
2022/11/26 02:22:04;;;;;;;8.03;4.40;;;9.90;99.90;;;;;;5051215;28;20827;-58
2022/11/26 02:24:48;;;;;;;11.63;5.13;;;9.90;99.90;;;;;;5050962;28;20689;-58
2022/11/26 02:27:45;;;;;;;13.13;4.27;;;10.00;99.90;;;;;;5050966;28;20205;-58
2022/11/26 02:30:14;;;;;;;13.67;4.77;;;10.00;99.90;;;;;;5051254;28;20677;-58
2022/11/26 02:32:53;;;;;;;11.27;5.10;;;10.00;99.90;;;;;;5050586;28;20718;-58
2022/11/26 02:35:25;;;;;;;11.37;4.93;;;10.00;99.90;;;;;;5051434;28;20206;-58
2022/11/26 02:37:55;;;;;;;8.67;4.80;;;9.80;99.90;;;;;;5051470;28;20236;-59
2022/11/26 02:40:25;;;;;;;11.93;4.90;;;9.90;99.90;;;;;;5051508;28;20307;-59
2022/11/26 02:42:51;;;;;;;10.10;4.80;;;9.90;99.90;;;;;;5050603;28;20236;-58
2022/11/26 02:45:23;;;;;;;10.77;4.57;;;10.00;99.90;;;;;;5051546;28;20212;-58
2022/11/26 02:47:53;;;;;;;14.13;5.23;;;10.00;99.90;;;;;;5051474;28;20201;-59
2022/11/26 02:50:24;;;;;;;12.33;4.37;;;10.00;99.90;;;;;;5051598;28;20241;-59
2022/11/26 02:52:54;;;;;;;10.33;4.37;;;10.10;99.90;;;;;;5050833;28;20225;-59
2022/11/26 02:55:26;;;;;;;12.00;4.63;;;10.10;99.90;;;;;;5051300;28;20300;-59
2022/11/26 02:57:54;;;;;;;11.80;4.70;;;10.10;99.90;;;;;;5051538;28;20226;-58
2022/11/26 03:00:22;;;;;;;7.80;4.33;;;10.00;99.90;;;;;;5051627;28;20214;-59
2022/11/26 03:02:54;;;;;;;8.40;4.03;;;9.80;99.90;;;;;;5050993;28;20221;-59
2022/11/26 03:05:21;;;;;;;9.63;4.13;;;9.90;99.90;;;;;;5051587;28;20216;-59
2022/11/26 03:07:51;;;;;;;8.77;4.30;;;9.90;99.90;;;;;;5051392;28;20205;-59
2022/11/26 03:10:20;;;;;;;11.20;4.50;;;10.00;99.90;;;;;;5051295;28;20655;-59
2022/11/26 03:12:47;;;;;;;10.07;4.47;;;10.10;99.90;;;;;;5050426;28;20244;-58
2022/11/26 03:15:14;;;;;;;12.70;4.73;;;10.10;99.90;;;;;;5051332;28;20206;-59
2022/11/26 03:17:42;;;;;;;9.80;4.40;;;9.90;99.90;;;;;;5050953;28;20229;-58
2022/11/26 03:20:09;;;;;;;8.43;4.07;;;10.00;99.90;;;;;;5051051;28;20210;-59
2022/11/26 03:22:36;;;;;;;9.10;3.90;;;10.00;99.90;;;;;;5050989;28;20315;-59
2022/11/26 03:25:03;;;;;;;8.57;4.20;;;10.10;99.90;;;;;;5050646;28;20232;-59
2022/11/26 03:27:30;;;;;;;8.53;3.90;;;10.10;99.90;;;;;;5051006;28;20205;-59
2022/11/26 03:29:57;;;;;;;9.03;4.03;;;10.20;99.90;;;;;;5050828;28;20607;-59
2022/11/26 03:32:24;;;;;;;11.27;4.00;;;10.20;99.90;;;;;;5050597;28;20237;-58
2022/11/26 03:34:52;;;;;;;8.77;4.23;;;10.30;99.90;;;;;;5050149;28;20206;-59
2022/11/26 03:37:18;;;;;;;9.47;4.30;;;10.30;99.90;;;;;;5050511;28;20682;-58
2022/11/26 03:39:45;;;;;;;10.43;3.90;;;10.30;99.90;;;;;;5052810;28;20205;-59
2022/11/26 03:42:12;;;;;;;9.20;4.80;;;10.30;99.90;;;;;;5054482;28;20236;-59
2022/11/26 03:44:39;;;;;;;9.27;4.23;;;10.30;99.90;;;;;;5053944;28;20206;-59
2022/11/26 03:47:05;;;;;;;8.87;4.43;;;10.30;99.90;;;;;;5054281;28;20214;-59
2022/11/26 03:49:32;;;;;;;10.77;4.50;;;10.30;99.90;;;;;;5054124;28;20205;-58
2022/11/26 03:52:01;;;;;;;7.93;4.00;;;10.30;99.90;;;;;;5054428;28;20237;-59
2022/11/26 03:54:27;;;;;;;8.80;3.93;;;10.30;99.90;;;;;;5053550;28;20206;-59
2022/11/26 03:56:54;;;;;;;10.20;4.70;;;10.30;99.90;;;;;;5054098;28;20208;-59
2022/11/26 03:59:21;;;;;;;10.00;4.50;;;10.30;99.90;;;;;;5054010;28;20230;-59
2022/11/26 04:01:48;;;;;;;11.00;4.30;;;10.20;99.90;;;;;;5053718;28;20244;-59
2022/11/26 04:04:14;;;;;;;8.67;3.97;;;10.10;99.90;;;;;;5053494;28;20213;-59
2022/11/26 04:06:41;;;;;;;8.87;4.10;;;10.10;99.90;;;;;;5054197;28;20314;-58
2022/11/26 04:09:09;;;;;;;7.83;3.90;;;10.00;99.90;;;;;;5054406;28;20232;-58
2022/11/26 04:11:36;;;;;;;9.23;4.23;;;9.90;99.90;;;;;;5054610;28;20248;-59
2022/11/26 04:14:03;;;;;;;9.27;4.07;;;9.90;99.90;;;;;;5053214;28;20217;-57
2022/11/26 04:16:29;;;;;;;9.10;4.37;;;9.80;99.90;;;;;;5053617;28;20206;-57
2022/11/26 04:18:56;;;;;;;9.90;4.30;;;9.90;99.90;;;;;;5053723;28;20225;-58
2022/11/26 04:21:23;;;;;;;8.93;3.80;;;9.90;99.90;;;;;;5053574;28;20233;-58
2022/11/26 04:23:50;;;;;;;6.63;3.63;;;10.00;99.90;;;;;;5053162;28;20213;-57
2022/11/26 04:26:18;;;;;;;7.30;3.90;;;10.00;99.90;;;;;;5053686;28;20212;-59
2022/11/26 04:28:45;;;;;;;8.07;3.83;;;9.90;99.90;;;;;;5053749;28;20289;-59
2022/11/26 04:31:11;;;;;;;9.10;3.70;;;9.90;99.90;;;;;;5053472;28;20236;-59
2022/11/26 04:33:38;;;;;;;11.23;3.97;;;10.00;99.90;;;;;;5052972;28;20251;-58
2022/11/26 04:36:05;;;;;;;7.97;3.57;;;10.00;99.90;;;;;;5053399;28;20209;-58
2022/11/26 04:38:32;;;;;;;11.60;3.97;;;10.10;99.90;;;;;;5053200;28;20222;-58
2022/11/26 04:40:59;;;;;;;11.17;4.40;;;10.10;99.90;;;;;;5053016;28;20615;-58
2022/11/26 04:43:27;;;;;;;9.33;4.93;;;10.10;99.90;;;;;;5052375;28;20210;-58
2022/11/26 04:45:54;;;;;;;10.60;5.47;;;10.00;99.90;;;;;;5052875;28;20209;-58
2022/11/26 04:48:21;;;;;;;10.57;4.13;;;9.90;99.90;;;;;;5053160;28;20210;-58
2022/11/26 04:50:48;;;;;;;8.20;3.50;;;9.90;99.90;;;;;;5052785;28;20207;-58
2022/11/26 04:53:15;;;;;;;6.50;4.03;;;10.00;99.90;;;;;;5052471;28;20544;-59
2022/11/26 04:55:42;;;;;;;8.37;3.93;;;10.00;99.90;;;;;;5052983;28;20209;-59
2022/11/26 04:58:09;;;;;;;5.90;3.67;;;10.10;99.90;;;;;;5052742;28;20228;-59
2022/11/26 05:00:37;;;;;;;7.80;3.20;;;10.10;99.90;;;;;;5053223;28;20205;-59
2022/11/26 05:03:03;;;;;;;7.90;4.00;;;10.10;99.90;;;;;;5052796;28;20226;-59
2022/11/26 05:05:30;;;;;;;8.57;3.80;;;10.10;99.90;;;;;;5052881;28;20682;-58
2022/11/26 05:07:57;;;;;;;9.47;3.70;;;10.20;99.90;;;;;;5052647;28;20202;-59
2022/11/26 05:10:24;;;;;;;11.33;4.00;;;10.20;99.90;;;;;;5052846;28;20304;-58
2022/11/26 05:12:50;;;;;;;12.73;4.33;;;10.20;99.90;;;;;;5052554;28;20744;-59
2022/11/26 05:15:17;;;;;;;8.90;3.40;;;10.20;99.90;;;;;;5051994;28;20206;-59
2022/11/26 05:17:45;;;;;;;27.20;14.73;;;10.20;99.90;;;;;;5052597;28;20228;-58
2022/11/26 05:20:13;;;;;;;13.53;5.97;;;10.20;99.90;;;;;;5052444;28;20202;-59
2022/11/26 05:22:40;;;;;;;10.33;4.20;;;10.20;99.90;;;;;;5052299;28;20316;-58
2022/11/26 05:25:07;;;;;;;12.60;4.10;;;10.20;99.90;;;;;;5051744;28;20209;-59
2022/11/26 05:27:34;;;;;;;9.60;4.00;;;10.30;99.90;;;;;;5052103;28;20206;-59
2022/11/26 05:30:01;;;;;;;10.40;4.40;;;10.30;99.90;;;;;;5052768;28;20201;-59
2022/11/26 05:32:28;;;;;;;12.70;5.50;;;10.30;99.90;;;;;;5052427;28;20227;-59
2022/11/26 05:34:56;;;;;;;8.37;3.67;;;10.30;99.90;;;;;;5052044;28;20222;-59
2022/11/26 05:37:22;;;;;;;7.90;3.47;;;10.40;99.90;;;;;;5052428;28;20271;-59
2022/11/26 05:39:49;;;;;;;12.17;4.20;;;10.40;99.90;;;;;;5052746;28;20222;-59
2022/11/26 05:42:17;;;;;;;14.53;5.03;;;10.40;99.90;;;;;;5052470;28;20225;-59
2022/11/26 05:44:44;;;;;;;9.90;3.70;;;10.40;99.90;;;;;;5052034;28;20220;-59
2022/11/26 05:47:10;;;;;;;12.70;3.50;;;10.50;99.90;;;;;;5052035;28;20209;-59
2022/11/26 05:49:37;;;;;;;10.40;4.40;;;10.50;99.90;;;;;;5052001;28;20205;-59
2022/11/26 05:52:05;;;;;;;12.63;4.07;;;10.50;99.90;;;;;;5051992;28;20245;-59
2022/11/26 05:54:32;;;;;;;18.37;7.23;;;10.40;99.90;;;;;;5051453;28;20216;-59
2022/11/26 05:56:59;;;;;;;12.73;4.00;;;10.40;99.90;;;;;;5052058;28;20201;-59
2022/11/26 05:59:26;;;;;;;10.90;4.27;;;10.40;99.90;;;;;;5051877;28;20225;-59
2022/11/26 06:01:52;;;;;;;11.60;4.50;;;10.30;99.90;;;;;;5050939;28;20229;-59
2022/11/26 06:04:19;;;;;;;22.90;11.60;;;10.20;99.90;;;;;;5051368;28;20221;-60
2022/11/26 06:06:46;;;;;;;10.07;4.43;;;10.30;99.90;;;;;;5051538;28;20213;-57
2022/11/26 06:09:14;;;;;;;27.83;13.20;;;10.30;99.90;;;;;;5052336;28;20209;-60
2022/11/26 06:11:41;;;;;;;10.37;4.20;;;10.30;99.90;;;;;;5051639;28;20248;-59
2022/11/26 06:14:09;;;;;;;17.73;6.07;;;10.30;99.90;;;;;;5051192;28;20232;-59
2022/11/26 06:16:36;;;;;;;37.10;19.27;;;10.20;99.90;;;;;;5051473;28;20735;-59
2022/11/26 06:19:03;;;;;;;20.97;9.63;;;10.10;99.90;;;;;;5051570;28;20221;-60
2022/11/26 06:21:29;;;;;;;12.53;5.53;;;10.20;99.90;;;;;;5051374;28;20237;-58
2022/11/26 06:23:56;;;;;;;12.10;4.43;;;10.20;99.90;;;;;;5050953;28;20201;-58
2022/11/26 06:26:25;;;;;;;23.70;10.30;;;10.30;99.90;;;;;;5051222;28;20216;-58
2022/11/26 06:28:51;;;;;;;10.93;4.90;;;10.30;99.90;;;;;;5051958;28;20202;-58
2022/11/26 06:31:18;;;;;;;16.50;4.97;;;10.30;99.90;;;;;;5051816;28;20229;-58
2022/11/26 06:33:45;;;;;;;12.03;4.30;;;10.30;99.90;;;;;;5050875;28;20214;-58
2022/11/26 06:36:12;;;;;;;11.93;5.23;;;10.40;99.90;;;;;;5052214;28;20201;-58
2022/11/26 06:38:38;;;;;;;15.33;4.77;;;10.40;99.90;;;;;;5051520;28;20228;-58
2022/11/26 06:41:07;;;;;;;12.87;5.40;;;10.40;99.90;;;;;;5051716;28;20677;-58
2022/11/26 06:43:36;;;;;;;15.93;6.33;;;10.40;99.90;;;;;;5050831;28;20205;-58
2022/11/26 06:46:04;;;;;;;13.63;5.83;;;10.40;99.90;;;;;;5051493;28;20208;-58
2022/11/26 06:48:31;;;;;;;10.60;4.37;;;10.40;99.90;;;;;;5051381;28;20201;-58
2022/11/26 06:51:02;;;;;;;12.57;6.57;;;10.50;99.90;;;;;;5051102;28;20218;-58
2022/11/26 06:53:29;;;;;;;16.03;6.47;;;10.50;99.90;;;;;;5050863;28;20213;-58
2022/11/26 06:55:59;;;;;;;12.00;6.03;;;10.50;99.90;;;;;;5051191;28;20242;-58
2022/11/26 06:58:26;;;;;;;29.40;15.27;;;10.50;99.90;;;;;;5051290;28;20325;-58
2022/11/26 07:00:54;;;;;;;16.40;6.67;;;10.50;99.90;;;;;;5051330;28;20216;-58
2022/11/26 07:03:21;;;;;;;11.53;4.70;;;10.50;99.90;;;;;;5050822;28;20233;-59
2022/11/26 07:05:48;;;;;;;12.90;5.07;;;10.40;99.90;;;;;;5052068;28;20206;-59
2022/11/26 07:08:14;;;;;;;21.13;10.03;;;10.40;99.90;;;;;;5051731;28;20205;-59
2022/11/26 07:10:41;;;;;;;12.80;4.73;;;10.40;99.90;;;;;;5051067;28;20789;-58
2022/11/26 07:13:08;;;;;;;13.23;4.07;;;10.40;99.90;;;;;;5052820;28;20236;-59
2022/11/26 07:15:35;;;;;;;14.70;5.37;;;10.50;99.90;;;;;;5054721;28;20213;-59
2022/11/26 07:18:03;;;;;;;10.40;5.57;;;10.60;99.90;;;;;;5055065;28;20292;-59
2022/11/26 07:20:30;;;;;;;12.47;4.80;;;10.60;99.90;;;;;;5053685;28;20229;-62
2022/11/26 07:22:57;;;;;;;19.20;9.57;;;10.50;99.90;;;;;;5056730;22;20225;-64
2022/11/26 07:25:23;;;;;;;11.57;4.90;;;10.60;99.90;;;;;;5040806;28;20202;-64
2022/11/26 07:27:50;;;;;;;11.43;5.43;;;10.70;99.90;;;;;;5033518;28;20206;-64
2022/11/26 07:30:17;;;;;;;16.33;6.90;;;10.70;99.90;;;;;;5033562;28;20206;-63
2022/11/26 07:32:44;;;;;;;12.50;5.20;;;10.80;99.90;;;;;;5033408;28;20244;-63
2022/11/26 07:35:12;;;;;;;14.70;6.43;;;10.80;99.90;;;;;;5032492;28;20210;-63
2022/11/26 07:37:39;;;;;;;8.43;5.03;;;10.80;99.90;;;;;;5033306;28;20225;-63
2022/11/26 07:40:07;;;;;;;14.37;5.47;;;10.90;99.90;;;;;;5033347;28;20226;-63
2022/11/26 07:42:34;;;;;;;11.00;4.67;;;11.00;99.90;;;;;;5034649;28;20229;-63
2022/11/26 07:45:00;;;;;;;13.03;8.00;;;11.00;99.90;;;;;;5033035;28;20730;-63
2022/11/26 07:47:27;;;;;;;15.93;6.67;;;11.10;99.90;;;;;;5033860;28;20319;-63
2022/11/26 07:49:54;;;;;;;13.80;5.73;;;11.10;99.90;;;;;;5034274;28;20202;-65
2022/11/26 07:52:22;;;;;;;11.53;5.67;;;11.20;99.90;;;;;;5033467;28;20495;-63
2022/11/26 07:54:49;;;;;;;12.30;5.40;;;11.20;99.90;;;;;;5032313;28;20804;-64
2022/11/26 07:57:17;;;;;;;14.17;6.00;;;11.00;99.90;;;;;;5032710;28;20257;-63
2022/11/26 07:59:43;;;;;;;12.47;6.43;;;11.00;99.90;;;;;;5033204;28;20245;-65
2022/11/26 08:02:14;;;;;;;16.03;6.63;;;10.90;99.90;;;;;;5032883;28;20238;-63
2022/11/26 08:04:41;;;;;;;13.27;6.30;;;10.60;99.90;;;;;;5032215;28;20213;-63
2022/11/26 08:07:08;;;;;;;13.27;6.30;;;10.20;99.90;;;;;;5032627;28;20242;-64
2022/11/26 08:09:36;;;;;;;10.83;5.77;;;10.20;99.90;;;;;;5032601;28;20210;-63
2022/11/26 08:12:03;;;;;;;12.17;6.20;;;10.20;99.90;;;;;;5032051;28;20264;-63
2022/11/26 08:14:30;;;;;;;19.60;10.93;;;10.40;99.90;;;;;;5032467;28;20212;-61
2022/11/26 08:16:57;;;;;;;14.60;7.47;;;10.60;99.90;;;;;;5032619;28;20202;-60
2022/11/26 08:19:24;;;;;;;8.33;4.93;;;10.80;99.90;;;;;;5032518;28;20252;-61
2022/11/26 08:21:50;;;;;;;11.60;5.30;;;10.90;99.90;;;;;;5032498;28;20230;-63
2022/11/26 08:24:20;;;;;;;11.33;5.83;;;11.00;99.90;;;;;;5031078;28;20211;-63
2022/11/26 08:26:48;;;;;;;16.00;5.73;;;10.90;99.90;;;;;;5032245;28;20380;-62
2022/11/26 08:29:15;;;;;;;14.23;5.17;;;10.80;99.90;;;;;;5032758;28;20198;-63
2022/11/26 08:31:42;;;;;;;9.90;5.20;;;10.60;99.90;;;;;;5032438;28;20245;-63
2022/11/26 08:34:12;;;;;;;11.10;5.47;;;10.60;99.90;;;;;;5031609;28;20732;-62
2022/11/26 08:36:39;;;;;;;7.73;4.90;;;10.90;99.90;;;;;;5032063;28;20202;-62
2022/11/26 08:39:07;;;;;;;12.37;5.70;;;11.00;99.90;;;;;;5031690;28;20230;-63
2022/11/26 08:41:34;;;;;;;9.77;5.10;;;11.20;99.90;;;;;;5032275;28;20202;-62
2022/11/26 08:44:02;;;;;;;8.03;5.50;;;11.30;99.90;;;;;;5031343;28;20618;-60
2022/11/26 08:46:28;;;;;;;10.47;6.67;;;11.40;99.90;;;;;;5031590;28;20210;-61
2022/11/26 08:48:56;;;;;;;17.53;10.03;;;11.40;99.90;;;;;;5031843;28;20313;-62
2022/11/26 08:51:24;;;;;;;12.47;6.60;;;11.20;99.90;;;;;;5031938;28;20202;-62
2022/11/26 08:53:51;;;;;;;8.80;4.90;;;11.00;99.90;;;;;;5031093;28;20213;-61
2022/11/26 08:56:18;;;;;;;11.77;5.10;;;10.90;99.90;;;;;;5031716;28;20260;-62
2022/11/26 08:58:45;;;;;;;14.23;6.27;;;10.80;99.90;;;;;;5031606;28;20213;-62
2022/11/26 09:01:15;;;;;;;9.37;5.10;;;10.90;99.90;;;;;;5031720;28;20662;-62
2022/11/26 09:03:43;;;;;;;11.67;5.80;;;11.10;99.90;;;;;;5031323;28;20209;-63
2022/11/26 09:06:10;;;;;;;11.60;4.80;;;11.40;99.90;;;;;;5031132;28;20646;-60
2022/11/26 09:09:11;;;;;;;11.67;4.90;;;11.60;99.90;;;;;;5031508;28;20209;-60
2022/11/26 09:11:26;;;;;;;10.03;4.63;;;11.80;99.90;;;;;;5031334;28;20241;-62
2022/11/26 09:13:53;;;;;;;10.27;4.57;;;12.00;99.90;;;;;;5030816;28;20217;-58
2022/11/26 09:16:21;;;;;;;12.63;4.77;;;12.20;99.90;;;;;;5032446;28;20708;-58
2022/11/26 09:18:48;;;;;;;13.77;4.57;;;12.30;99.90;;;;;;5032482;28;20661;-58
2022/11/26 09:21:15;;;;;;;12.53;4.80;;;12.40;99.90;;;;;;5032772;28;20757;-59
2022/11/26 09:23:41;;;;;;;12.17;4.87;;;12.40;99.90;;;;;;5031890;28;20253;-63
2022/11/26 09:26:08;;;;;;;9.70;4.30;;;12.20;99.90;;;;;;5032718;28;20223;-63
2022/11/26 09:28:35;;;;;;;9.43;3.73;;;12.00;99.90;;;;;;5032608;28;20214;-61
2022/11/26 09:31:02;;;;;;;13.57;4.30;;;11.90;99.90;;;;;;5032520;28;20202;-61
2022/11/26 09:33:31;;;;;;;10.07;3.73;;;11.80;99.90;;;;;;5032211;28;20234;-62
2022/11/26 09:36:04;;;;;;;11.33;3.80;;;11.70;99.90;;;;;;5031710;28;20214;-60
2022/11/26 09:38:31;;;;;;;9.30;3.50;;;11.70;99.90;;;;;;5032468;28;20205;-62
2022/11/26 09:41:09;;;;;;;14.23;4.10;;;11.60;99.90;;;;;;5032587;28;20523;-62
2022/11/26 09:43:46;;;;;;;9.87;3.93;;;11.60;99.90;;;;;;5031607;28;20731;-62
2022/11/26 09:46:16;;;;;;;10.23;4.03;;;11.50;99.90;;;;;;5032484;28;20214;-61
2022/11/26 09:48:44;;;;;;;13.30;4.27;;;11.50;99.90;;;;;;5032268;28;20584;-61
2022/11/26 09:51:16;;;;;;;12.03;4.13;;;11.40;99.90;;;;;;5032466;28;20201;-61
2022/11/26 09:53:46;;;;;;;13.17;4.97;;;11.40;99.90;;;;;;5031779;28;20202;-61
2022/11/26 09:56:17;;;;;;;8.63;3.80;;;11.50;99.90;;;;;;5032021;28;20214;-61
2022/11/26 09:58:50;;;;;;;10.50;3.70;;;11.60;99.90;;;;;;5032227;28;20206;-62
2022/11/26 10:01:20;;;;;;;9.00;3.73;;;11.50;99.90;;;;;;5032202;28;20251;-62
2022/11/26 10:03:49;;;;;;;15.60;3.83;;;11.60;99.90;;;;;;5031461;28;20202;-62
2022/11/26 10:06:27;;;;;;;10.10;3.17;;;11.70;99.90;;;;;;5031497;28;20213;-61
2022/11/26 10:09:21;;;;;;;10.20;3.37;;;11.80;99.90;;;;;;5031543;28;20681;-63
2022/11/26 10:11:55;;;;;;;11.00;3.67;;;12.00;99.90;;;;;;5032005;28;20257;-63
2022/11/26 10:14:45;;;;;;;10.77;3.90;;;12.10;99.90;;;;;;5031460;28;20210;-62
2022/11/26 10:17:25;;;;;;;10.53;3.40;;;12.20;99.90;;;;;;5031901;28;20202;-62
2022/11/26 10:20:12;;;;;;;10.70;3.50;;;12.20;99.90;;;;;;5032160;28;20229;-62
2022/11/26 10:22:49;;;;;;;14.93;3.77;;;12.20;99.90;;;;;;5031737;28;20260;-61
2022/11/26 10:25:18;;;;;;;15.10;3.97;;;12.10;99.90;;;;;;5030982;28;20206;-62
2022/11/26 10:27:48;;;;;;;8.83;3.63;;;12.00;99.90;;;;;;5032160;28;20206;-62
2022/11/26 10:30:19;;;;;;;10.00;3.60;;;12.00;99.90;;;;;;5031762;28;20210;-63
2022/11/26 10:32:48;;;;;;;10.13;3.93;;;12.10;99.90;;;;;;5031812;28;20226;-62
2022/11/26 10:35:18;;;;;;;11.27;4.57;;;12.40;99.90;;;;;;5031497;28;20210;-63
2022/11/26 10:37:45;;;;;;;9.53;3.90;;;12.70;99.90;;;;;;5031738;28;20212;-62
2022/11/26 10:40:20;;;;;;;13.10;4.10;;;13.00;99.90;;;;;;5031847;28;20230;-64
2022/11/26 10:42:56;;;;;;;11.50;3.90;;;13.10;99.90;;;;;;5031860;28;20652;-61
2022/11/26 10:45:25;;;;;;;13.27;4.20;;;12.90;99.90;;;;;;5031169;28;20205;-61
2022/11/26 10:47:52;;;;;;;10.90;4.00;;;12.40;99.90;;;;;;5032661;28;20602;-61
2022/11/26 10:50:25;;;;;;;10.07;3.87;;;12.00;99.90;;;;;;5035312;28;20210;-61
2022/11/26 10:52:52;;;;;;;8.60;3.50;;;11.90;99.90;;;;;;5036270;28;20230;-62
2022/11/26 10:55:24;;;;;;;10.90;3.80;;;11.80;99.90;;;;;;5035495;28;20202;-62
2022/11/26 10:57:55;;;;;;;15.97;4.07;;;11.80;99.90;;;;;;5035514;28;20217;-61
2022/11/26 11:00:34;;;;;;;8.57;3.93;;;12.10;99.90;;;;;;5035352;28;20229;-62
2022/11/26 11:03:02;;;;;;;11.43;3.30;;;12.40;99.90;;;;;;5035461;28;20237;-61
2022/11/26 11:05:31;;;;;;;8.27;3.43;;;12.50;99.90;;;;;;5034887;28;20213;-62
2022/11/26 11:07:58;;;;;;;11.70;3.50;;;12.50;99.90;;;;;;5035471;28;20206;-62
2022/11/26 11:10:26;;;;;;;11.30;3.50;;;12.50;99.90;;;;;;5035409;28;20555;-62
2022/11/26 11:13:03;;;;;;;12.20;4.23;;;12.70;99.90;;;;;;5035263;28;20232;-62
2022/11/26 11:15:31;;;;;;;12.63;3.80;;;12.80;99.90;;;;;;5034616;28;20217;-62
2022/11/26 11:18:02;;;;;;;10.13;3.90;;;12.90;99.90;;;;;;5034830;28;20206;-62
2022/11/26 11:20:36;;;;;;;13.73;4.30;;;12.80;99.90;;;;;;5034558;28;20226;-62
2022/11/26 11:23:11;;;;;;;12.20;4.57;;;12.70;99.90;;;;;;5034448;28;20313;-62
2022/11/26 11:25:40;;;;;;;11.20;4.43;;;12.70;99.90;;;;;;5033942;28;20232;-61
2022/11/26 11:28:15;;;;;;;11.33;4.70;;;12.90;99.90;;;;;;5035112;28;20222;-62
2022/11/26 11:30:43;;;;;;;12.67;4.50;;;13.10;99.90;;;;;;5034783;28;20221;-62
2022/11/26 11:33:17;;;;;;;9.53;4.20;;;13.30;99.90;;;;;;5034566;28;20317;-62
2022/11/26 11:36:01;;;;;;;8.37;3.37;;;13.40;99.90;;;;;;5033563;28;20213;-65
2022/11/26 11:38:31;;;;;;;10.57;4.20;;;13.50;99.90;;;;;;5034721;28;20220;-62
2022/11/26 11:40:59;;;;;;;11.20;4.27;;;13.50;99.90;;;;;;5034196;28;20223;-62
2022/11/26 11:43:26;;;;;;;9.53;4.80;;;13.30;99.90;;;;;;5034598;28;20233;-61
2022/11/26 11:46:06;;;;;;;10.83;4.20;;;13.30;99.90;;;;;;5033854;28;20206;-62
2022/11/26 11:48:45;;;;;;;12.37;3.97;;;13.40;99.90;;;;;;5034637;28;20306;-62
2022/11/26 11:51:23;;;;;;;9.10;3.93;;;13.60;99.90;;;;;;5034690;28;20297;-62
2022/11/26 11:53:58;;;;;;;11.60;4.20;;;13.50;99.90;;;;;;5033901;28;20224;-62
2022/11/26 11:56:31;;;;;;;6.53;3.23;;;13.20;99.90;;;;;;5034160;28;20210;-63
2022/11/26 11:59:13;;;;;;;8.07;3.07;;;13.10;99.90;;;;;;5033503;28;20211;-62
2022/11/26 12:02:04;;;;;;;9.47;3.30;;;12.90;99.90;;;;;;5034100;28;20231;-62
2022/11/26 12:04:51;;;;;;;9.73;3.47;;;13.00;99.90;;;;;;5033331;28;20222;-62
2022/11/26 12:07:34;;;;;;;10.77;4.20;;;13.20;99.90;;;;;;5034072;28;20701;-62
2022/11/26 12:10:09;;;;;;;7.50;2.80;;;13.30;99.90;;;;;;5034122;28;20205;-63
2022/11/26 12:12:38;;;;;;;16.80;7.70;;;13.10;99.90;;;;;;5034035;28;20252;-62
2022/11/26 12:15:12;;;;;;;9.87;3.63;;;13.10;99.90;;;;;;5033225;28;20210;-61
2022/11/26 12:17:44;;;;;;;15.03;7.53;;;13.10;99.90;;;;;;5034075;28;20202;-61
2022/11/26 12:20:19;;;;;;;10.17;3.70;;;12.90;99.90;;;;;;5033789;28;20230;-61
2022/11/26 12:22:52;;;;;;;9.00;3.10;;;12.90;99.90;;;;;;5033678;28;20229;-61
2022/11/26 12:25:26;;;;;;;8.07;2.67;;;13.00;99.90;;;;;;5033079;28;20320;-61
2022/11/26 12:27:59;;;;;;;9.07;3.17;;;13.00;99.90;;;;;;5033667;28;20216;-61
2022/11/26 12:30:35;;;;;;;10.37;2.80;;;12.90;99.90;;;;;;5033365;28;20294;-61
2022/11/26 12:33:06;;;;;;;8.23;3.07;;;12.90;99.90;;;;;;5033296;28;20601;-62
2022/11/26 12:35:37;;;;;;;9.33;4.40;;;12.70;99.90;;;;;;5032833;28;20206;-61
2022/11/26 12:38:13;;;;;;;9.93;4.90;;;12.60;99.90;;;;;;5033518;28;20229;-62
2022/11/26 12:40:44;;;;;;;8.13;3.73;;;12.70;99.90;;;;;;5033156;28;20300;-62
2022/11/26 12:43:16;;;;;;;9.00;2.80;;;12.80;99.90;;;;;;5033370;28;20230;-61
2022/11/26 12:45:49;;;;;;;6.93;2.50;;;13.00;99.90;;;;;;5032824;28;20210;-62
2022/11/26 12:48:31;;;;;;;7.07;2.67;;;13.00;99.90;;;;;;5033263;28;20293;-62
2022/11/26 12:51:02;;;;;;;10.23;3.80;;;12.80;99.90;;;;;;5032928;28;20217;-62
2022/11/26 12:53:43;;;;;;;8.67;2.57;;;12.50;99.90;;;;;;5033211;28;20234;-62
2022/11/26 12:56:17;;;;;;;7.90;3.83;;;12.40;99.90;;;;;;5033165;28;20210;-62